createdAt,value
2019-05-06T00:02:04.550Z,99.90
2019-05-06T00:04:36.165Z,99.90
2019-05-06T00:07:07.835Z,99.90
2019-05-06T00:09:39.378Z,99.90
2019-05-06T00:12:11.349Z,99.90
2019-05-06T00:14:43.626Z,99.90
2019-05-06T00:17:15.174Z,99.90
2019-05-06T00:19:46.791Z,99.90
2019-05-06T00:22:18.181Z,99.90
2019-05-06T00:24:55.825Z,99.90
2019-05-06T00:27:34.245Z,99.90
2019-05-06T00:30:07.280Z,99.90
2019-05-06T00:32:38.487Z,99.90
2019-05-06T00:35:09.754Z,99.90
2019-05-06T00:37:40.975Z,99.90
2019-05-06T00:40:19.416Z,99.90
2019-05-06T00:43:15.857Z,99.90
2019-05-06T00:45:47.509Z,99.90
2019-05-06T00:48:18.833Z,99.90
2019-05-06T00:50:50.108Z,99.90
2019-05-06T00:53:23.977Z,99.90
2019-05-06T00:55:55.199Z,99.90
2019-05-06T00:58:26.518Z,99.90
2019-05-06T01:00:59.136Z,99.90
2019-05-06T01:03:30.426Z,99.90
2019-05-06T01:06:03.739Z,99.90
2019-05-06T01:08:35.161Z,99.90
2019-05-06T01:11:08.043Z,99.90
2019-05-06T01:14:10.313Z,99.90
2019-05-06T01:16:43.844Z,99.90
2019-05-06T01:19:14.930Z,99.90
2019-05-06T01:21:46.225Z,99.90
2019-05-06T01:24:17.854Z,99.90
2019-05-06T01:26:49.146Z,99.90
2019-05-06T01:29:20.993Z,99.90
2019-05-06T01:31:54.234Z,99.90
2019-05-06T01:34:25.033Z,99.90
2019-05-06T01:36:56.746Z,99.90
2019-05-06T01:39:53.731Z,99.90
2019-05-06T01:42:30.500Z,99.90
2019-05-06T01:45:01.732Z,99.90
2019-05-06T01:47:34.561Z,99.90
2019-05-06T01:50:07.040Z,99.90
2019-05-06T01:52:38.273Z,99.90
2019-05-06T01:55:10.552Z,99.90
2019-05-06T01:57:41.926Z,99.90
2019-05-06T02:00:14.230Z,99.90
2019-05-06T02:02:45.759Z,99.90
2019-05-06T02:05:17.115Z,99.90
2019-05-06T02:07:48.429Z,99.90
2019-05-06T02:10:19.732Z,99.90
2019-05-06T02:12:50.851Z,99.90
2019-05-06T02:15:23.878Z,99.90
2019-05-06T02:17:55.690Z,99.90
2019-05-06T02:20:27.345Z,99.90
2019-05-06T02:23:08.837Z,99.90
2019-05-06T02:25:44.723Z,99.90
2019-05-06T02:28:16.471Z,99.90
2019-05-06T02:31:09.448Z,99.90
2019-05-06T02:33:55.759Z,99.90
2019-05-06T02:36:46.368Z,99.90
2019-05-06T02:39:17.718Z,99.90
2019-05-06T02:41:49.298Z,99.90
2019-05-06T02:44:23.651Z,99.90
2019-05-06T02:47:02.890Z,99.90
2019-05-06T02:49:45.077Z,99.90
2019-05-06T02:52:26.571Z,99.90
2019-05-06T02:54:58.214Z,99.90
2019-05-06T02:57:33.264Z,99.90
2019-05-06T03:00:05.030Z,99.90
2019-05-06T03:02:43.412Z,99.90
2019-05-06T03:05:12.859Z,99.90
2019-05-06T03:07:43.668Z,99.90
2019-05-06T03:10:16.613Z,99.90
2019-05-06T03:12:47.898Z,99.90
2019-05-06T03:15:23.656Z,99.90
2019-05-06T03:17:55.437Z,99.90
2019-05-06T03:21:03.643Z,99.90
2019-05-06T03:23:37.379Z,99.90
2019-05-06T03:26:08.636Z,99.90
2019-05-06T03:28:40.298Z,99.90
2019-05-06T03:31:16.261Z,99.90
2019-05-06T03:34:03.845Z,99.90
2019-05-06T03:36:25.903Z,99.90
2019-05-06T03:38:53.521Z,99.90
2019-05-06T03:41:26.584Z,99.90
2019-05-06T03:43:57.377Z,99.90
2019-05-06T03:46:36.469Z,99.90
2019-05-06T03:49:07.991Z,99.90
2019-05-06T03:51:39.276Z,99.90
2019-05-06T03:54:12.811Z,99.90
2019-05-06T03:56:45.156Z,99.90
2019-05-06T03:59:17.911Z,99.90
2019-05-06T04:01:50.221Z,99.90
2019-05-06T04:04:23.387Z,99.90
2019-05-06T04:06:55.093Z,99.90
2019-05-06T04:09:26.391Z,99.90
2019-05-06T04:11:59.450Z,99.90
2019-05-06T04:14:33.734Z,99.90
2019-05-06T04:17:14.260Z,99.90
2019-05-06T04:20:00.042Z,99.90
2019-05-06T04:22:44.075Z,99.90
2019-05-06T04:25:43.870Z,99.90
2019-05-06T04:28:23.583Z,99.90
2019-05-06T04:30:54.785Z,99.90
2019-05-06T04:33:27.361Z,99.90
2019-05-06T04:35:59.601Z,99.90
2019-05-06T04:38:33.488Z,99.90
2019-05-06T04:41:03.969Z,99.90
2019-05-06T04:43:35.932Z,99.90
2019-05-06T04:46:07.335Z,99.90
2019-05-06T04:48:38.628Z,99.90
2019-05-06T04:51:09.975Z,99.90
2019-05-06T04:53:44.065Z,99.90
2019-05-06T04:56:14.647Z,99.90
2019-05-06T04:58:46.035Z,99.90
2019-05-06T05:01:17.667Z,99.90
2019-05-06T05:03:49.484Z,99.90
2019-05-06T05:06:23.079Z,99.90
2019-05-06T05:08:55.186Z,99.90
2019-05-06T05:11:42.624Z,99.90
2019-05-06T05:14:28.507Z,99.90
2019-05-06T05:17:22.863Z,99.90
2019-05-06T05:19:55.059Z,99.90
2019-05-06T05:22:27.245Z,99.90
2019-05-06T05:24:59.215Z,99.90
2019-05-06T05:27:32.907Z,99.90
2019-05-06T05:30:04.649Z,99.90
2019-05-06T05:32:36.648Z,99.90
2019-05-06T05:35:08.623Z,99.90
2019-05-06T05:37:41.862Z,99.90
2019-05-06T05:40:13.147Z,99.90
2019-05-06T05:42:53.891Z,99.90
2019-05-06T05:45:25.200Z,99.90
2019-05-06T05:47:58.172Z,99.90
2019-05-06T05:50:36.653Z,99.90
2019-05-06T05:53:08.310Z,99.90
2019-05-06T05:55:39.950Z,99.90
2019-05-06T05:58:12.991Z,99.90
2019-05-06T06:00:44.625Z,99.90
2019-05-06T06:03:16.266Z,99.90
2019-05-06T06:05:48.025Z,99.90
2019-05-06T06:08:22.013Z,99.90
2019-05-06T06:11:00.142Z,99.90
2019-05-06T06:13:32.073Z,99.90
2019-05-06T06:16:23.269Z,99.90
2019-05-06T06:19:03.315Z,99.90
2019-05-06T06:21:48.140Z,99.90
2019-05-06T06:24:23.951Z,99.90
2019-05-06T06:26:55.222Z,99.90
2019-05-06T06:29:26.509Z,99.90
2019-05-06T06:32:16.960Z,99.90
2019-05-06T06:35:11.114Z,99.90
2019-05-06T06:37:57.776Z,99.90
2019-05-06T06:40:30.599Z,99.90
2019-05-06T06:43:06.021Z,99.90
2019-05-06T06:45:38.037Z,99.90
2019-05-06T06:48:09.312Z,99.90
2019-05-06T06:50:42.651Z,99.90
2019-05-06T06:53:13.995Z,99.90
2019-05-06T06:55:45.708Z,99.90
2019-05-06T06:58:23.511Z,99.90
2019-05-06T07:01:03.695Z,99.90
2019-05-06T07:04:06.800Z,99.90
2019-05-06T07:06:44.025Z,99.90
2019-05-06T07:09:15.293Z,99.90
2019-05-06T07:11:46.435Z,99.90
2019-05-06T07:14:18.275Z,99.90
2019-05-06T07:16:49.916Z,99.90
2019-05-06T07:19:28.262Z,99.90
2019-05-06T07:21:59.508Z,99.90
2019-05-06T07:24:32.455Z,99.90
2019-05-06T07:27:15.314Z,99.90
2019-05-06T07:29:48.419Z,99.90
2019-05-06T07:32:19.862Z,99.90
2019-05-06T07:34:53.136Z,99.90
2019-05-06T07:37:24.078Z,99.90
2019-05-06T07:39:56.836Z,99.90
2019-05-06T07:42:34.171Z,99.90
2019-05-06T07:45:32.713Z,99.90
2019-05-06T07:48:06.574Z,99.90
2019-05-06T07:50:37.711Z,99.90
2019-05-06T07:53:09.552Z,99.90
2019-05-06T07:55:42.478Z,99.90
2019-05-06T07:58:14.041Z,99.90
2019-05-06T08:00:45.290Z,99.90
2019-05-06T08:03:16.574Z,99.90
2019-05-06T08:05:55.783Z,99.90
2019-05-06T08:08:23.025Z,99.90
2019-05-06T08:10:54.439Z,99.90
2019-05-06T08:13:25.714Z,99.90
2019-05-06T08:15:57.278Z,99.90
2019-05-06T08:18:28.922Z,99.90
2019-05-06T08:21:02.527Z,99.90
2019-05-06T08:23:39.775Z,99.90
2019-05-06T08:26:16.623Z,99.90
2019-05-06T08:28:45.100Z,99.90
2019-05-06T08:31:18.502Z,99.90
2019-05-06T08:33:52.123Z,99.90
2019-05-06T08:36:32.817Z,99.90
2019-05-06T08:39:04.636Z,99.90
2019-05-06T08:41:36.252Z,99.90
2019-05-06T08:44:07.792Z,99.90
2019-05-06T08:46:43.248Z,99.90
2019-05-06T08:49:14.879Z,99.90
2019-05-06T08:51:56.058Z,99.90
2019-05-06T08:54:34.192Z,99.90
2019-05-06T08:57:06.043Z,99.90
2019-05-06T08:59:37.474Z,99.90
2019-05-06T09:02:08.893Z,99.90
2019-05-06T09:04:40.161Z,99.90
2019-05-06T09:07:12.050Z,99.90
2019-05-06T09:09:43.276Z,99.90
2019-05-06T09:12:16.168Z,99.90
2019-05-06T09:14:47.448Z,99.90
2019-05-06T09:17:18.720Z,99.90
2019-05-06T09:19:50.217Z,99.90
2019-05-06T09:22:23.519Z,99.90
2019-05-06T09:24:54.379Z,99.90
2019-05-06T09:27:43.407Z,99.90
2019-05-06T09:30:22.948Z,99.90
2019-05-06T09:32:54.323Z,99.90
2019-05-06T09:35:25.731Z,99.90
2019-05-06T09:37:57.202Z,99.90
2019-05-06T09:40:28.793Z,99.90
2019-05-06T09:42:59.997Z,99.90
2019-05-06T09:45:33.035Z,99.90
2019-05-06T09:48:33.051Z,99.90
2019-05-06T09:51:04.421Z,98.60
2019-05-06T09:54:00.515Z,97.00
2019-05-06T09:56:35.469Z,96.80
2019-05-06T09:59:06.856Z,97.30
2019-05-06T10:01:38.893Z,97.80
2019-05-06T10:04:12.949Z,97.80
2019-05-06T10:06:55.624Z,98.40
2019-05-06T10:09:16.702Z,98.40
2019-05-06T10:11:48.746Z,99.00
2019-05-06T10:14:20.038Z,98.70
2019-05-06T10:16:52.469Z,98.10
2019-05-06T10:19:23.799Z,97.30
2019-05-06T10:21:55.585Z,97.20
2019-05-06T10:24:26.971Z,97.00
2019-05-06T10:26:59.442Z,96.10
2019-05-06T10:29:53.097Z,95.40
2019-05-06T10:32:32.733Z,94.20
2019-05-06T10:35:04.585Z,93.90
2019-05-06T10:38:18.359Z,95.00
2019-05-06T10:41:03.622Z,95.20
2019-05-06T10:44:10.704Z,95.10
2019-05-06T10:46:43.648Z,94.90
2019-05-06T10:49:14.929Z,94.10
2019-05-06T10:51:52.995Z,93.80
2019-05-06T10:54:24.370Z,93.90
2019-05-06T10:57:22.083Z,94.20
2019-05-06T10:59:53.848Z,93.90
2019-05-06T11:02:59.100Z,94.50
2019-05-06T11:05:32.385Z,93.40
2019-05-06T11:08:03.408Z,92.60
2019-05-06T11:10:40.818Z,92.30
2019-05-06T11:13:07.692Z,91.60
2019-05-06T11:15:38.982Z,91.90
2019-05-06T11:18:13.279Z,91.30
2019-05-06T11:20:44.254Z,90.20
2019-05-06T11:23:15.572Z,91.00
2019-05-06T11:25:47.060Z,91.30
2019-05-06T11:28:35.747Z,91.30
2019-05-06T11:31:29.110Z,91.30
2019-05-06T11:34:14.551Z,91.50
2019-05-06T11:37:04.743Z,92.00
2019-05-06T11:39:35.926Z,92.00
2019-05-06T11:42:25.298Z,92.00
2019-05-06T11:44:40.113Z,92.50
2019-05-06T11:47:12.470Z,92.60
2019-05-06T11:49:44.283Z,91.60
2019-05-06T11:52:15.616Z,91.60
2019-05-06T11:54:47.147Z,91.30
2019-05-06T11:57:19.111Z,91.00
2019-05-06T11:59:52.591Z,90.90
2019-05-06T12:02:24.459Z,90.50
2019-05-06T12:04:55.776Z,87.80
2019-05-06T12:07:27.248Z,89.10
2019-05-06T12:09:58.289Z,88.60
2019-05-06T12:12:29.503Z,89.30
2019-05-06T12:15:03.078Z,90.00
2019-05-06T12:17:33.836Z,90.30
2019-05-06T12:20:06.480Z,91.30
2019-05-06T12:22:37.854Z,91.60
2019-05-06T12:25:12.679Z,91.50
2019-05-06T12:27:44.550Z,91.50
2019-05-06T12:30:22.769Z,91.30
2019-05-06T12:33:12.822Z,91.20
2019-05-06T12:35:48.444Z,91.10
2019-05-06T12:38:30.159Z,91.40
2019-05-06T12:41:00.049Z,91.70
2019-05-06T12:43:47.504Z,92.00
2019-05-06T12:46:23.577Z,92.00
2019-05-06T12:48:55.266Z,92.20
2019-05-06T12:51:26.471Z,91.90
2019-05-06T12:53:57.954Z,91.50
2019-05-06T12:56:30.004Z,90.60
2019-05-06T12:59:02.115Z,88.00
2019-05-06T13:01:34.749Z,89.10
2019-05-06T13:04:05.959Z,87.30
2019-05-06T13:06:37.175Z,88.40
2019-05-06T13:09:08.879Z,88.80
2019-05-06T13:11:43.086Z,88.50
2019-05-06T13:14:14.464Z,88.80
2019-05-06T13:16:45.806Z,89.00
2019-05-06T13:19:17.080Z,90.10
2019-05-06T13:21:48.462Z,90.60
2019-05-06T13:24:19.997Z,91.20
2019-05-06T13:26:52.814Z,91.50
2019-05-06T13:29:28.210Z,91.60
2019-05-06T13:31:59.583Z,91.70
2019-05-06T13:34:33.168Z,91.20
2019-05-06T13:37:05.245Z,91.20
2019-05-06T13:39:36.575Z,91.40
2019-05-06T13:42:08.642Z,91.30
2019-05-06T13:44:39.854Z,91.30
2019-05-06T13:47:15.233Z,90.90
2019-05-06T13:49:53.638Z,90.90
2019-05-06T13:52:34.105Z,90.30
2019-05-06T13:55:06.636Z,90.40
2019-05-06T13:57:39.434Z,90.00
2019-05-06T14:00:13.549Z,90.20
2019-05-06T14:02:50.026Z,90.30
2019-05-06T14:05:21.390Z,90.50
2019-05-06T14:07:53.066Z,91.10
2019-05-06T14:10:25.004Z,90.90
2019-05-06T14:12:56.556Z,90.60
2019-05-06T14:15:27.843Z,90.50
2019-05-06T14:17:59.704Z,90.20
2019-05-06T14:20:33.399Z,90.00
2019-05-06T14:23:04.826Z,89.10
2019-05-06T14:25:58.069Z,90.10
2019-05-06T14:28:54.402Z,90.10
2019-05-06T14:31:38.724Z,90.40
2019-05-06T14:34:11.967Z,90.10
2019-05-06T14:36:46.385Z,90.30
2019-05-06T14:39:23.901Z,90.30
2019-05-06T14:41:56.345Z,90.80
2019-05-06T14:44:27.639Z,90.60
2019-05-06T14:47:06.883Z,89.10
2019-05-06T14:49:38.166Z,89.30
2019-05-06T14:52:09.542Z,87.10
2019-05-06T14:54:53.472Z,87.50
2019-05-06T14:57:25.860Z,87.00
2019-05-06T14:59:57.242Z,87.20
2019-05-06T15:02:28.595Z,87.80
2019-05-06T15:05:02.741Z,87.80
2019-05-06T15:07:33.129Z,88.80
2019-05-06T15:10:19.263Z,88.80
2019-05-06T15:12:37.960Z,89.60
2019-05-06T15:15:12.121Z,88.60
2019-05-06T15:17:43.311Z,89.50
2019-05-06T15:20:15.032Z,89.80
2019-05-06T15:22:46.591Z,88.80
2019-05-06T15:25:17.917Z,88.00
2019-05-06T15:27:49.172Z,86.80
2019-05-06T15:30:27.247Z,87.40
2019-05-06T15:32:58.539Z,87.10
2019-05-06T15:35:48.830Z,88.10
2019-05-06T15:38:23.930Z,88.00
2019-05-06T15:40:55.340Z,87.60
2019-05-06T15:43:26.677Z,88.20
2019-05-06T15:45:58.412Z,88.70
2019-05-06T15:48:29.540Z,89.00
2019-05-06T15:51:02.082Z,89.50
2019-05-06T15:53:33.567Z,89.10
2019-05-06T15:56:05.116Z,89.10
2019-05-06T15:58:36.582Z,88.90
2019-05-06T16:01:07.852Z,89.20
2019-05-06T16:03:43.268Z,89.60
2019-05-06T16:06:13.665Z,89.20
2019-05-06T16:08:45.581Z,89.30
2019-05-06T16:11:17.213Z,89.30
2019-05-06T16:13:48.701Z,89.40
2019-05-06T16:16:22.652Z,90.00
2019-05-06T16:18:53.664Z,90.30
2019-05-06T16:21:25.229Z,90.20
2019-05-06T16:24:06.544Z,90.10
2019-05-06T16:26:37.914Z,90.00
2019-05-06T16:29:09.315Z,89.50
2019-05-06T16:31:42.263Z,90.10
2019-05-06T16:34:14.784Z,90.40
2019-05-06T16:36:46.298Z,90.40
2019-05-06T16:39:17.559Z,90.30
2019-05-06T16:41:48.913Z,90.30
2019-05-06T16:44:20.156Z,90.00
2019-05-06T16:46:52.145Z,90.30
2019-05-06T16:49:23.633Z,90.60
2019-05-06T16:51:55.140Z,90.70
2019-05-06T16:54:27.720Z,91.10
2019-05-06T16:57:06.642Z,91.40
2019-05-06T16:59:38.209Z,91.60
2019-05-06T17:02:16.137Z,91.40
2019-05-06T17:05:05.724Z,91.10
2019-05-06T17:07:42.259Z,91.10
2019-05-06T17:10:15.244Z,91.10
2019-05-06T17:12:46.607Z,91.20
2019-05-06T17:15:18.099Z,91.40
2019-05-06T17:17:49.454Z,91.60
2019-05-06T17:20:22.768Z,91.60
2019-05-06T17:22:54.543Z,91.70
2019-05-06T17:25:25.719Z,91.70
2019-05-06T17:28:02.020Z,91.40
2019-05-06T17:30:43.254Z,91.40
2019-05-06T17:33:33.440Z,91.50
2019-05-06T17:36:06.892Z,91.90
2019-05-06T17:38:47.119Z,90.40
2019-05-06T17:41:18.821Z,90.90
2019-05-06T17:43:52.148Z,91.20
2019-05-06T17:46:25.930Z,91.30
2019-05-06T17:49:07.659Z,91.50
2019-05-06T17:52:13.776Z,91.30
2019-05-06T17:54:45.771Z,91.60
2019-05-06T17:57:17.119Z,91.50
2019-05-06T17:59:48.804Z,91.70
2019-05-06T18:02:22.802Z,91.70
2019-05-06T18:04:54.103Z,92.00
2019-05-06T18:07:25.740Z,92.10
2019-05-06T18:09:57.159Z,92.10
2019-05-06T18:12:28.396Z,92.30
2019-05-06T18:14:59.926Z,92.20
2019-05-06T18:17:33.479Z,92.30
2019-05-06T18:20:04.931Z,92.30
2019-05-06T18:22:36.462Z,92.30
2019-05-06T18:25:09.346Z,92.50
2019-05-06T18:27:42.932Z,92.60
2019-05-06T18:30:23.253Z,93.20
2019-05-06T18:32:46.854Z,92.90
2019-05-06T18:35:17.994Z,93.10
2019-05-06T18:37:49.268Z,93.20
2019-05-06T18:40:20.627Z,93.30
2019-05-06T18:42:52.523Z,93.50
2019-05-06T18:45:23.932Z,93.70
2019-05-06T18:47:55.160Z,93.90
2019-05-06T18:50:27.556Z,94.00
2019-05-06T18:52:58.959Z,94.20
2019-05-06T18:55:32.536Z,94.40
2019-05-06T18:58:03.770Z,94.30
2019-05-06T19:00:35.064Z,94.40
2019-05-06T19:03:06.339Z,94.50
2019-05-06T19:05:39.781Z,94.50
2019-05-06T19:08:32.836Z,94.60
2019-05-06T19:11:05.176Z,94.90
2019-05-06T19:13:36.380Z,95.00
2019-05-06T19:16:07.676Z,95.20
2019-05-06T19:18:39.158Z,95.30
2019-05-06T19:21:10.442Z,95.30
2019-05-06T19:23:42.774Z,95.50
2019-05-06T19:26:14.075Z,95.60
2019-05-06T19:28:45.969Z,95.80
2019-05-06T19:31:17.172Z,96.30
2019-05-06T19:33:48.317Z,96.40
2019-05-06T19:36:19.702Z,96.50
2019-05-06T19:38:51.235Z,96.70
2019-05-06T19:41:22.532Z,97.10
2019-05-06T19:43:54.057Z,97.30
2019-05-06T19:46:25.563Z,98.00
2019-05-06T19:48:56.835Z,98.80
2019-05-06T19:51:28.070Z,99.00
2019-05-06T19:53:59.252Z,99.00
2019-05-06T19:56:30.575Z,99.20
2019-05-06T19:59:02.415Z,99.40
2019-05-06T20:01:33.699Z,99.10
2019-05-06T20:04:05.330Z,99.20
2019-05-06T20:06:52.306Z,99.30
2019-05-06T20:09:46.547Z,99.40
2019-05-06T20:12:28.593Z,99.90
2019-05-06T20:15:18.809Z,99.90
2019-05-06T20:17:51.968Z,99.90
2019-05-06T20:20:23.029Z,99.90
2019-05-06T20:22:54.328Z,99.90
2019-05-06T20:25:25.942Z,99.90
2019-05-06T20:27:57.391Z,99.90
2019-05-06T20:30:28.929Z,99.90
2019-05-06T20:33:00.666Z,99.90
2019-05-06T20:35:32.489Z,99.90
2019-05-06T20:38:04.124Z,99.90
2019-05-06T20:40:38.116Z,99.90
2019-05-06T20:43:19.318Z,99.90
2019-05-06T20:45:42.745Z,99.90
2019-05-06T20:48:14.157Z,99.90
2019-05-06T20:50:45.687Z,99.90
2019-05-06T20:53:16.986Z,99.90
2019-05-06T20:55:48.103Z,99.90
2019-05-06T20:58:19.605Z,99.90
2019-05-06T21:00:52.123Z,99.90
2019-05-06T21:03:24.973Z,99.90
2019-05-06T21:05:56.523Z,99.90
2019-05-06T21:08:27.617Z,99.90
2019-05-06T21:10:59.605Z,99.90
2019-05-06T21:13:33.025Z,99.90
2019-05-06T21:16:04.189Z,99.90
2019-05-06T21:18:35.480Z,99.90
2019-05-06T21:21:07.071Z,99.90
2019-05-06T21:23:38.336Z,99.90
2019-05-06T21:26:09.971Z,99.90
2019-05-06T21:28:43.593Z,99.90
2019-05-06T21:31:15.733Z,99.90
2019-05-06T21:33:47.075Z,99.90
2019-05-06T21:36:18.399Z,99.90
2019-05-06T21:38:49.543Z,99.90
2019-05-06T21:41:22.154Z,99.90
2019-05-06T21:43:53.775Z,99.90
2019-05-06T21:46:25.110Z,99.90
2019-05-06T21:48:57.443Z,99.90
2019-05-06T21:51:28.713Z,99.90
2019-05-06T21:54:02.676Z,99.90
2019-05-06T21:56:33.138Z,99.90
2019-05-06T21:59:04.310Z,99.90
2019-05-06T22:01:37.670Z,99.90
2019-05-06T22:04:08.943Z,99.90
2019-05-06T22:06:42.885Z,99.90
2019-05-06T22:09:14.238Z,99.90
2019-05-06T22:11:45.484Z,99.90
2019-05-06T22:14:17.091Z,99.90
2019-05-06T22:16:48.366Z,99.90
2019-05-06T22:19:19.538Z,99.90
2019-05-06T22:22:08.027Z,99.90
2019-05-06T22:24:44.955Z,99.90
2019-05-06T22:27:17.340Z,99.90
2019-05-06T22:29:49.052Z,99.90
2019-05-06T22:32:22.923Z,99.90
2019-05-06T22:34:53.292Z,99.90
2019-05-06T22:37:25.015Z,99.90
2019-05-06T22:39:56.623Z,99.90
2019-05-06T22:42:27.759Z,99.90
2019-05-06T22:44:59.322Z,99.90
2019-05-06T22:47:32.377Z,99.90
2019-05-06T22:50:03.935Z,99.90
2019-05-06T22:52:35.219Z,99.90
2019-05-06T22:55:06.984Z,99.90
2019-05-06T22:57:38.131Z,99.90
2019-05-06T23:00:12.212Z,99.90
2019-05-06T23:02:52.902Z,99.90
2019-05-06T23:05:25.067Z,99.90
2019-05-06T23:07:56.264Z,99.90
2019-05-06T23:10:27.439Z,99.90
2019-05-06T23:12:58.679Z,99.90
2019-05-06T23:15:29.863Z,99.90
2019-05-06T23:18:02.283Z,99.90
2019-05-06T23:20:33.695Z,99.90
2019-05-06T23:23:05.344Z,99.90
2019-05-06T23:25:36.890Z,99.90
2019-05-06T23:28:08.166Z,99.90
2019-05-06T23:30:39.685Z,99.90
2019-05-06T23:33:11.763Z,99.90
2019-05-06T23:35:44.149Z,99.90
2019-05-06T23:39:09.728Z,99.90
2019-05-06T23:42:35.281Z,99.90
2019-05-06T23:46:02.337Z,99.90
2019-05-06T23:49:27.863Z,99.90
2019-05-06T23:52:53.451Z,99.90
2019-05-06T23:56:18.834Z,99.90
2019-05-06T23:58:52.347Z,99.90
